Wartburg, Tennessee
Current Conditions -  °F | °C
As of 9:53 AM on Wednesday 26 Nov 2014 (Local Time) from KOQT Reporting Station
Clear Clear  
Wind Chill: 46°   Ceiling: Unl
Heat Index: 46°   Visibility: 10mi
Dew Point: 30°   Wind: 3mph
Humidity: 54%   Direction: 220°SW
Pressure: 30.09"   Gusts: NA
Location:  36.1°N, 84.6°W
Report Text: KOQT 261453Z AUTO 22003KT 10SM CLR 08/M01 A3009 RMK AO2 SLP193 T00781011 53016
Loading
Personal Weather Stations






























Interactive Weather Map New forecast layout! Learn more

10-Day Weather Forecast

Advertisements
Track Severe Weather on mobile